Time;durP1;ratioP1;P1;durP2;ratioP2;P2;SDS_P1;SDS_P2;PMS_P1;PMS_P2;Temp;Humidity;BMP_temperature;BMP_pressure;BME280_temperature;BME280_humidity;BME280_pressure;Samples;Min_cycle;Max_cycle;Signal;HPM_P1;HPM_P2
2023/07/30 00:01:12;;;;;;;16.05;14.85;;;;;;;;;;4987328;28;20038;-75
2023/07/30 00:03:38;;;;;;;15.73;14.52;;;;;;;;;;4987703;28;20034;-74
2023/07/30 00:06:03;;;;;;;16.23;14.90;;;;;;;;;;4989552;28;20038;-75
2023/07/30 00:08:29;;;;;;;15.32;14.13;;;;;;;;;;4990886;28;20041;-74
2023/07/30 00:10:57;;;;;;;15.40;14.30;;;;;;;;;;4987792;28;20026;-75
2023/07/30 00:13:23;;;;;;;15.68;14.35;;;;;;;;;;4989964;28;20550;-75
2023/07/30 00:15:49;;;;;;;16.38;15.07;;;;;;;;;;4991556;28;20035;-75
2023/07/30 00:18:15;;;;;;;16.95;15.48;;;;;;;;;;4992220;28;20045;-75
2023/07/30 00:20:41;;;;;;;16.70;15.07;;;;;;;;;;4989609;28;20057;-75
2023/07/30 00:23:06;;;;;;;16.02;14.82;;;;;;;;;;4989950;28;20030;-75
2023/07/30 00:25:32;;;;;;;15.82;14.57;;;;;;;;;;4988181;28;20066;-75
2023/07/30 00:27:58;;;;;;;15.98;14.68;;;;;;;;;;4984137;28;20061;-75
2023/07/30 00:30:23;;;;;;;16.88;15.23;;;;;;;;;;4989189;28;20044;-76
2023/07/30 00:32:49;;;;;;;16.10;14.90;;;;;;;;;;4995085;28;20030;-75
2023/07/30 00:35:14;;;;;;;16.38;15.07;;;;;;;;;;4987056;28;20068;-75
2023/07/30 00:37:40;;;;;;;16.67;15.20;;;;;;;;;;4986883;28;20151;-76
2023/07/30 00:40:06;;;;;;;17.00;15.80;;;;;;;;;;4988350;28;20037;-75
2023/07/30 00:42:32;;;;;;;16.70;15.43;;;;;;;;;;4989229;28;20058;-76
2023/07/30 00:44:58;;;;;;;17.25;15.85;;;;;;;;;;4986387;28;20801;-76
2023/07/30 00:47:23;;;;;;;17.10;15.60;;;;;;;;;;4990062;28;20061;-76
2023/07/30 00:49:50;;;;;;;18.13;16.50;;;;;;;;;;4986762;28;20153;-76
2023/07/30 00:52:19;;;;;;;17.10;15.60;;;;;;;;;;4985398;28;20037;-76
2023/07/30 00:54:47;;;;;;;17.30;15.90;;;;;;;;;;4987483;28;20403;-75
2023/07/30 00:57:13;;;;;;;17.70;16.30;;;;;;;;;;4991138;28;20038;-76
2023/07/30 00:59:38;;;;;;;16.88;15.50;;;;;;;;;;4988094;28;20042;-77
2023/07/30 01:02:04;;;;;;;17.38;15.52;;;;;;;;;;4987611;28;20158;-76
2023/07/30 01:04:30;;;;;;;18.08;16.63;;;;;;;;;;4992081;28;20057;-75
2023/07/30 01:06:56;;;;;;;17.42;16.02;;;;;;;;;;4987472;28;20101;-74
2023/07/30 01:09:22;;;;;;;17.10;15.60;;;;;;;;;;4985382;28;20026;-76
2023/07/30 01:11:49;;;;;;;16.52;15.27;;;;;;;;;;4982836;28;20065;-74
2023/07/30 01:14:15;;;;;;;17.73;16.27;;;;;;;;;;4988037;28;20116;-74
2023/07/30 01:16:41;;;;;;;17.45;16.10;;;;;;;;;;4986159;28;20065;-75
2023/07/30 01:19:07;;;;;;;16.92;15.52;;;;;;;;;;4985263;28;20429;-74
2023/07/30 01:21:36;;;;;;;17.30;15.95;;;;;;;;;;4989925;28;20477;-74
2023/07/30 01:24:03;;;;;;;17.08;15.70;;;;;;;;;;4990451;28;20042;-76
2023/07/30 01:26:42;;;;;;;17.77;16.10;;;;;;;;;;4987549;28;20177;-76
2023/07/30 01:29:33;;;;;;;17.90;16.45;;;;;;;;;;4989257;28;20036;-75
2023/07/30 01:32:11;;;;;;;17.27;15.95;;;;;;;;;;4990616;28;20049;-76
2023/07/30 01:34:38;;;;;;;17.10;15.75;;;;;;;;;;4990302;28;20042;-76
2023/07/30 01:37:11;;;;;;;18.10;16.52;;;;;;;;;;4990619;28;20045;-75
2023/07/30 01:39:39;;;;;;;17.33;16.02;;;;;;;;;;4991333;28;20041;-76
2023/07/30 01:42:04;;;;;;;17.90;16.30;;;;;;;;;;4990425;28;20047;-76
2023/07/30 01:44:30;;;;;;;18.08;16.50;;;;;;;;;;4992945;28;20105;-75
2023/07/30 01:46:56;;;;;;;17.48;16.17;;;;;;;;;;4987426;28;20038;-76
2023/07/30 01:49:21;;;;;;;16.48;15.07;;;;;;;;;;4988359;28;20050;-76
2023/07/30 01:51:48;;;;;;;16.98;15.70;;;;;;;;;;4991733;28;20573;-76
2023/07/30 01:54:13;;;;;;;18.13;16.15;;;;;;;;;;4974660;28;20048;-76
2023/07/30 01:56:39;;;;;;;17.58;16.10;;;;;;;;;;4989487;28;20035;-76
2023/07/30 01:59:04;;;;;;;17.40;15.90;;;;;;;;;;4988627;28;20162;-76
2023/07/30 02:01:30;;;;;;;17.48;16.13;;;;;;;;;;4990581;28;20046;-75
2023/07/30 02:03:56;;;;;;;17.27;15.82;;;;;;;;;;4989434;28;20084;-75
2023/07/30 02:06:21;;;;;;;17.05;15.73;;;;;;;;;;4990407;28;20034;-76
2023/07/30 02:08:47;;;;;;;16.23;15.02;;;;;;;;;;4991400;28;20031;-77
2023/07/30 02:11:13;;;;;;;16.63;15.43;;;;;;;;;;4989076;28;20038;-76
2023/07/30 02:13:38;;;;;;;16.67;15.10;;;;;;;;;;4990475;28;20046;-75
2023/07/30 02:16:04;;;;;;;16.75;15.35;;;;;;;;;;4991957;28;20046;-75
2023/07/30 02:18:29;;;;;;;16.52;15.18;;;;;;;;;;4981182;28;20048;-77
2023/07/30 02:20:55;;;;;;;16.13;14.93;;;;;;;;;;4985369;28;20112;-76
2023/07/30 02:23:21;;;;;;;16.52;15.23;;;;;;;;;;4992192;28;20039;-75
2023/07/30 02:25:47;;;;;;;16.23;15.00;;;;;;;;;;4987707;28;20034;-75
2023/07/30 02:28:12;;;;;;;16.17;14.98;;;;;;;;;;4984161;28;20355;-75
2023/07/30 02:30:38;;;;;;;16.33;15.02;;;;;;;;;;4986111;28;20052;-75
2023/07/30 02:33:04;;;;;;;16.27;15.05;;;;;;;;;;4992165;28;20034;-77
2023/07/30 02:35:30;;;;;;;15.85;14.75;;;;;;;;;;4987401;28;20042;-76
2023/07/30 02:37:55;;;;;;;15.63;14.57;;;;;;;;;;4986255;28;20350;-75
2023/07/30 02:40:21;;;;;;;16.10;15.00;;;;;;;;;;4988077;28;20637;-75
2023/07/30 02:42:46;;;;;;;16.05;14.90;;;;;;;;;;4987875;28;20037;-76
2023/07/30 02:45:12;;;;;;;18.15;16.52;;;;;;;;;;4989226;28;20551;-76
2023/07/30 02:47:38;;;;;;;15.63;14.52;;;;;;;;;;4985230;28;20525;-76
2023/07/30 02:50:04;;;;;;;16.15;15.05;;;;;;;;;;4971640;28;20042;-76
2023/07/30 02:52:30;;;;;;;15.30;14.00;;;;;;;;;;4987451;28;20034;-77
2023/07/30 02:54:56;;;;;;;16.45;14.95;;;;;;;;;;4986806;28;20042;-75
2023/07/30 02:57:21;;;;;;;15.73;14.55;;;;;;;;;;4982639;28;20037;-75
2023/07/30 02:59:47;;;;;;;15.15;14.05;;;;;;;;;;4985378;28;20035;-74
2023/07/30 03:02:13;;;;;;;16.10;14.55;;;;;;;;;;4983898;28;20664;-75
2023/07/30 03:04:39;;;;;;;15.45;14.35;;;;;;;;;;4982565;28;20065;-75
2023/07/30 03:07:05;;;;;;;15.38;14.20;;;;;;;;;;4981229;28;20042;-75
2023/07/30 03:09:30;;;;;;;15.57;14.50;;;;;;;;;;4981119;28;20049;-75
2023/07/30 03:11:56;;;;;;;15.50;14.32;;;;;;;;;;4985850;28;20545;-75
2023/07/30 03:14:21;;;;;;;15.55;14.48;;;;;;;;;;4990440;28;20527;-76
2023/07/30 03:16:48;;;;;;;15.15;13.90;;;;;;;;;;4985388;28;20041;-75
2023/07/30 03:19:14;;;;;;;15.40;14.30;;;;;;;;;;4983021;28;20038;-75
2023/07/30 03:21:40;;;;;;;15.70;14.57;;;;;;;;;;4965507;28;20049;-76
2023/07/30 03:24:05;;;;;;;15.82;14.68;;;;;;;;;;4985955;28;20038;-76
2023/07/30 03:26:31;;;;;;;15.55;14.35;;;;;;;;;;4984852;28;20061;-75
2023/07/30 03:28:56;;;;;;;15.45;14.43;;;;;;;;;;4984487;28;20534;-75
2023/07/30 03:31:22;;;;;;;16.65;15.02;;;;;;;;;;4967761;28;20402;-75
2023/07/30 03:33:48;;;;;;;16.65;15.27;;;;;;;;;;4987464;28;20038;-76
2023/07/30 03:36:14;;;;;;;15.82;14.73;;;;;;;;;;4986191;28;20038;-76
2023/07/30 03:38:40;;;;;;;15.57;14.40;;;;;;;;;;4990170;28;20513;-76
2023/07/30 03:41:06;;;;;;;15.95;14.85;;;;;;;;;;4993963;28;20486;-77
2023/07/30 03:43:33;;;;;;;16.02;14.60;;;;;;;;;;4988919;28;20585;-76
2023/07/30 03:45:58;;;;;;;15.68;14.45;;;;;;;;;;4992140;28;20038;-77
2023/07/30 03:48:24;;;;;;;15.13;14.13;;;;;;;;;;4992334;28;20080;-76
2023/07/30 03:50:49;;;;;;;15.43;14.35;;;;;;;;;;4976829;28;20405;-77
2023/07/30 03:53:15;;;;;;;15.75;14.45;;;;;;;;;;4991226;28;20117;-77
2023/07/30 03:55:41;;;;;;;17.25;15.52;;;;;;;;;;4994238;28;20042;-77
2023/07/30 03:58:06;;;;;;;15.57;14.25;;;;;;;;;;4990818;28;20042;-76
2023/07/30 04:00:33;;;;;;;15.07;13.98;;;;;;;;;;4973747;28;20038;-78
2023/07/30 04:02:59;;;;;;;16.25;15.02;;;;;;;;;;4993335;28;20691;-77
2023/07/30 04:05:24;;;;;;;16.10;14.90;;;;;;;;;;4997464;28;20058;-78
2023/07/30 04:07:50;;;;;;;15.65;14.57;;;;;;;;;;4994225;28;20034;-78
2023/07/30 04:10:16;;;;;;;16.20;15.00;;;;;;;;;;4994549;28;20038;-78
2023/07/30 04:12:41;;;;;;;16.23;14.93;;;;;;;;;;4988862;28;20402;-77
2023/07/30 04:15:07;;;;;;;16.20;15.10;;;;;;;;;;4992109;28;20030;-78
2023/07/30 04:17:35;;;;;;;16.20;14.88;;;;;;;;;;4989223;28;20546;-78
2023/07/30 04:20:02;;;;;;;16.47;15.27;;;;;;;;;;4987790;28;20034;-78
2023/07/30 04:22:27;;;;;;;16.23;14.90;;;;;;;;;;4990284;28;20117;-78
2023/07/30 04:24:53;;;;;;;16.88;15.63;;;;;;;;;;4990058;28;20538;-78
2023/07/30 04:27:20;;;;;;;16.52;15.23;;;;;;;;;;4991054;28;20034;-78
2023/07/30 04:29:46;;;;;;;16.00;14.93;;;;;;;;;;5000663;28;20109;-78
2023/07/30 04:32:11;;;;;;;16.42;14.98;;;;;;;;;;4994250;28;20161;-78
2023/07/30 04:34:37;;;;;;;16.30;15.10;;;;;;;;;;4988043;28;20027;-78
2023/07/30 04:37:03;;;;;;;15.18;14.15;;;;;;;;;;4987213;28;20188;-78
2023/07/30 04:39:32;;;;;;;15.85;14.65;;;;;;;;;;4987234;28;20048;-78
2023/07/30 04:41:58;;;;;;;16.08;14.70;;;;;;;;;;4991433;28;20034;-78
2023/07/30 04:44:26;;;;;;;16.98;15.48;;;;;;;;;;4991159;28;20093;-78
2023/07/30 04:46:53;;;;;;;16.05;14.68;;;;;;;;;;4986412;28;20042;-78
2023/07/30 04:49:18;;;;;;;14.75;13.75;;;;;;;;;;4989860;28;20030;-78
2023/07/30 04:51:44;;;;;;;15.63;14.52;;;;;;;;;;4988949;28;20044;-78
2023/07/30 04:54:10;;;;;;;16.80;15.25;;;;;;;;;;4986533;28;20038;-78
2023/07/30 04:56:36;;;;;;;16.42;15.00;;;;;;;;;;4987317;28;20085;-78
2023/07/30 04:59:02;;;;;;;16.10;14.80;;;;;;;;;;4987586;28;20038;-78
2023/07/30 05:01:28;;;;;;;17.10;15.55;;;;;;;;;;4988552;28;20510;-78
2023/07/30 05:03:54;;;;;;;16.45;14.98;;;;;;;;;;4988986;28;20069;-78
2023/07/30 05:06:19;;;;;;;16.45;15.18;;;;;;;;;;4989029;28;20081;-78
2023/07/30 05:08:45;;;;;;;16.23;14.93;;;;;;;;;;4988434;28;20061;-78
2023/07/30 05:11:10;;;;;;;16.80;15.50;;;;;;;;;;4988459;28;20050;-78
2023/07/30 05:13:36;;;;;;;16.15;15.02;;;;;;;;;;4990752;28;20093;-79
2023/07/30 05:16:02;;;;;;;17.08;15.65;;;;;;;;;;4991852;28;20049;-77
2023/07/30 05:18:28;;;;;;;17.05;15.73;;;;;;;;;;4991383;28;20038;-77
2023/07/30 05:20:54;;;;;;;16.98;15.30;;;;;;;;;;4991356;28;20084;-78
2023/07/30 05:23:20;;;;;;;17.08;15.77;;;;;;;;;;4991062;28;20034;-78
2023/07/30 05:25:46;;;;;;;17.50;16.00;;;;;;;;;;4990278;28;20071;-78
2023/07/30 05:28:12;;;;;;;16.58;15.40;;;;;;;;;;4988986;28;20383;-78
2023/07/30 05:30:37;;;;;;;17.45;15.95;;;;;;;;;;4996556;28;20091;-77
2023/07/30 05:33:03;;;;;;;16.48;15.27;;;;;;;;;;4997113;28;20096;-76
2023/07/30 05:35:29;;;;;;;17.40;16.08;;;;;;;;;;4992353;28;20498;-78
2023/07/30 05:37:54;;;;;;;16.95;15.65;;;;;;;;;;4989932;28;20037;-78
2023/07/30 05:40:21;;;;;;;16.15;14.63;;;;;;;;;;4986889;28;20109;-78
2023/07/30 05:42:46;;;;;;;15.85;14.75;;;;;;;;;;4987971;28;20516;-78
2023/07/30 05:45:12;;;;;;;15.90;14.52;;;;;;;;;;4992985;28;20162;-77
2023/07/30 05:47:37;;;;;;;15.25;14.07;;;;;;;;;;4990803;28;20038;-78
2023/07/30 05:50:03;;;;;;;15.63;14.38;;;;;;;;;;4991800;28;20468;-77
2023/07/30 05:52:29;;;;;;;15.68;14.52;;;;;;;;;;4992651;28;20034;-78
2023/07/30 05:54:55;;;;;;;15.05;13.88;;;;;;;;;;4991924;28;20045;-78
2023/07/30 05:57:20;;;;;;;15.88;14.63;;;;;;;;;;4972205;28;20129;-78
2023/07/30 05:59:46;;;;;;;15.75;14.43;;;;;;;;;;4992104;28;20046;-78
2023/07/30 06:02:12;;;;;;;15.68;14.32;;;;;;;;;;4991566;28;21169;-78
2023/07/30 06:04:38;;;;;;;16.20;15.00;;;;;;;;;;4988758;28;20049;-78
2023/07/30 06:07:04;;;;;;;15.45;14.15;;;;;;;;;;4990189;28;20038;-77
2023/07/30 06:09:29;;;;;;;14.65;13.55;;;;;;;;;;4992996;28;20053;-78
2023/07/30 06:11:57;;;;;;;14.85;13.75;;;;;;;;;;4992603;28;20038;-78
2023/07/30 06:14:23;;;;;;;14.82;13.57;;;;;;;;;;4992895;28;20117;-78
2023/07/30 06:16:49;;;;;;;14.02;13.13;;;;;;;;;;4991869;28;20077;-78
2023/07/30 06:19:15;;;;;;;14.93;13.75;;;;;;;;;;4991713;28;20443;-78
2023/07/30 06:21:40;;;;;;;14.05;13.05;;;;;;;;;;4991952;28;20580;-78
2023/07/30 06:24:06;;;;;;;15.27;14.02;;;;;;;;;;4992264;28;20042;-78
2023/07/30 06:26:32;;;;;;;14.80;13.85;;;;;;;;;;4990884;28;20054;-78
2023/07/30 06:28:57;;;;;;;14.65;13.73;;;;;;;;;;4988490;28;20034;-76
2023/07/30 06:31:23;;;;;;;15.10;13.85;;;;;;;;;;4993749;28;20127;-76
2023/07/30 06:33:48;;;;;;;14.73;13.63;;;;;;;;;;4987781;28;20030;-75
2023/07/30 06:36:14;;;;;;;15.30;14.07;;;;;;;;;;4984165;28;20542;-76
2023/07/30 06:38:39;;;;;;;15.32;14.18;;;;;;;;;;4988703;28;20046;-75
2023/07/30 06:41:05;;;;;;;14.38;13.48;;;;;;;;;;4986974;28;20038;-76
2023/07/30 06:43:31;;;;;;;14.15;13.05;;;;;;;;;;4984444;28;20049;-76
2023/07/30 06:45:57;;;;;;;14.38;13.35;;;;;;;;;;4984044;28;20977;-76
2023/07/30 06:48:22;;;;;;;14.02;13.10;;;;;;;;;;4987089;28;20038;-76
2023/07/30 06:50:48;;;;;;;14.18;13.15;;;;;;;;;;4983527;28;20042;-76
2023/07/30 06:53:13;;;;;;;12.60;11.80;;;;;;;;;;4984789;28;20033;-75
2023/07/30 06:55:39;;;;;;;13.77;12.77;;;;;;;;;;4986859;28;20038;-75
2023/07/30 06:58:05;;;;;;;12.80;12.00;;;;;;;;;;4984767;28;20678;-75
2023/07/30 07:00:30;;;;;;;13.23;12.32;;;;;;;;;;4982538;28;20041;-75
2023/07/30 07:02:56;;;;;;;13.25;12.45;;;;;;;;;;4984847;28;20626;-75
2023/07/30 07:05:22;;;;;;;13.07;12.07;;;;;;;;;;4986380;28;20061;-75
2023/07/30 07:07:47;;;;;;;13.07;12.15;;;;;;;;;;4986159;28;20034;-75
2023/07/30 07:10:13;;;;;;;12.25;11.40;;;;;;;;;;4969954;28;20049;-75
2023/07/30 07:12:39;;;;;;;12.52;11.73;;;;;;;;;;4969556;28;20475;-76
2023/07/30 07:15:06;;;;;;;13.43;12.52;;;;;;;;;;4985241;28;20125;-75
2023/07/30 07:17:31;;;;;;;12.75;11.73;;;;;;;;;;4966791;28;20034;-75
2023/07/30 07:19:58;;;;;;;13.23;12.32;;;;;;;;;;4987485;28;20037;-74
2023/07/30 07:22:24;;;;;;;12.60;11.77;;;;;;;;;;4987694;28;20034;-75
2023/07/30 07:24:52;;;;;;;12.75;11.75;;;;;;;;;;4968562;28;21022;-75
2023/07/30 07:27:18;;;;;;;12.82;12.02;;;;;;;;;;4986924;28;20038;-74
2023/07/30 07:29:43;;;;;;;12.23;11.52;;;;;;;;;;4968038;28;20049;-75
2023/07/30 07:32:09;;;;;;;12.60;11.80;;;;;;;;;;4984410;28;20049;-74
2023/07/30 07:34:35;;;;;;;12.60;11.82;;;;;;;;;;4968437;28;20498;-74
2023/07/30 07:37:02;;;;;;;12.70;11.90;;;;;;;;;;4969395;28;20042;-73
2023/07/30 07:39:27;;;;;;;12.23;11.50;;;;;;;;;;4985784;28;20512;-74
2023/07/30 07:41:53;;;;;;;12.65;11.88;;;;;;;;;;4985755;28;20149;-75
2023/07/30 07:44:19;;;;;;;13.20;12.30;;;;;;;;;;4983507;28;20125;-75
2023/07/30 07:46:44;;;;;;;13.80;12.63;;;;;;;;;;4988891;28;20030;-77
2023/07/30 07:49:10;;;;;;;14.60;13.23;;;;;;;;;;4988597;28;20038;-77
2023/07/30 07:51:35;;;;;;;14.20;13.20;;;;;;;;;;4991106;28;20032;-78
2023/07/30 07:54:01;;;;;;;13.32;12.25;;;;;;;;;;4986138;28;20034;-75
2023/07/30 07:56:26;;;;;;;14.02;13.13;;;;;;;;;;4987476;28;20021;-77
2023/07/30 07:58:52;;;;;;;13.45;12.52;;;;;;;;;;4987466;28;20059;-74
2023/07/30 08:01:18;;;;;;;13.40;12.55;;;;;;;;;;4989356;28;20093;-75
2023/07/30 08:03:44;;;;;;;13.43;12.18;;;;;;;;;;4988657;28;20038;-78
2023/07/30 08:06:10;;;;;;;12.88;12.07;;;;;;;;;;4982950;28;20117;-77
2023/07/30 08:08:35;;;;;;;12.88;11.88;;;;;;;;;;4986412;28;20126;-78
2023/07/30 08:11:08;;;;;;;12.95;12.05;;;;;;;;;;4989920;28;20030;-79
2023/07/30 08:13:35;;;;;;;12.30;11.40;;;;;;;;;;4989450;28;20121;-78
2023/07/30 08:16:01;;;;;;;12.63;11.80;;;;;;;;;;4983959;28;20786;-78
2023/07/30 08:18:28;;;;;;;12.32;11.43;;;;;;;;;;4986758;28;20057;-79
2023/07/30 08:20:53;;;;;;;12.40;11.50;;;;;;;;;;4982716;28;20045;-78
2023/07/30 08:23:19;;;;;;;13.25;12.40;;;;;;;;;;4993427;28;20037;-78
2023/07/30 08:25:45;;;;;;;12.40;11.70;;;;;;;;;;4987183;28;20241;-78
2023/07/30 08:28:10;;;;;;;12.30;11.60;;;;;;;;;;4984651;28;20030;-78
2023/07/30 08:30:36;;;;;;;12.45;11.48;;;;;;;;;;4987076;28;20398;-78
2023/07/30 08:33:02;;;;;;;12.35;11.55;;;;;;;;;;4987447;28;20026;-78
2023/07/30 08:35:28;;;;;;;12.70;11.90;;;;;;;;;;4987376;28;20681;-78
2023/07/30 08:37:54;;;;;;;13.13;12.32;;;;;;;;;;4987110;28;20030;-78
2023/07/30 08:40:23;;;;;;;11.98;11.27;;;;;;;;;;4987268;28;20053;-78
2023/07/30 08:42:52;;;;;;;12.95;12.15;;;;;;;;;;4983817;28;20125;-78
2023/07/30 08:45:18;;;;;;;;;;;;;;;;;;4987262;28;20046;-78
2023/07/30 08:47:44;;;;;;;13.30;12.40;;;;;;;;;;4987096;28;20606;-77
2023/07/30 08:50:10;;;;;;;13.02;12.13;;;;;;;;;;4985576;28;20061;-78
2023/07/30 08:52:36;;;;;;;13.00;12.10;;;;;;;;;;4985245;28;20942;-78
2023/07/30 08:55:03;;;;;;;12.20;11.50;;;;;;;;;;4983860;28;20073;-77
2023/07/30 08:57:29;;;;;;;12.30;11.57;;;;;;;;;;4986189;28;20034;-77
2023/07/30 09:00:10;;;;;;;11.90;11.20;;;;;;;;;;4986941;28;20117;-77
2023/07/30 09:02:47;;;;;;;11.90;11.20;;;;;;;;;;4981692;28;20088;-76
2023/07/30 09:05:13;;;;;;;11.57;10.88;;;;;;;;;;4983761;28;20034;-77
2023/07/30 09:07:39;;;;;;;11.82;11.13;;;;;;;;;;4982710;28;20120;-76
2023/07/30 09:10:05;;;;;;;11.98;11.27;;;;;;;;;;4982947;28;20506;-76
2023/07/30 09:12:33;;;;;;;12.30;11.50;;;;;;;;;;4985932;28;20038;-76
2023/07/30 09:15:00;;;;;;;12.93;12.13;;;;;;;;;;4985246;28;20120;-75
2023/07/30 09:17:26;;;;;;;11.68;10.88;;;;;;;;;;4980320;28;20046;-75
2023/07/30 09:19:52;;;;;;;11.73;11.02;;;;;;;;;;4982080;28;20046;-74
2023/07/30 09:22:28;;;;;;;12.95;12.18;;;;;;;;;;4983794;28;20609;-76
2023/07/30 09:24:55;;;;;;;11.88;11.07;;;;;;;;;;4983773;28;20198;-76
2023/07/30 09:27:23;;;;;;;11.20;10.50;;;;;;;;;;4983206;28;20095;-76
2023/07/30 09:29:59;;;;;;;11.55;10.85;;;;;;;;;;4983350;28;20042;-74
2023/07/30 09:32:33;;;;;;;12.32;11.57;;;;;;;;;;4982798;28;20030;-75
2023/07/30 09:35:09;;;;;;;12.43;11.52;;;;;;;;;;4986779;28;20063;-75
2023/07/30 09:37:40;;;;;;;12.35;11.55;;;;;;;;;;4984141;28;20742;-75
2023/07/30 09:40:11;;;;;;;12.70;11.80;;;;;;;;;;4983609;28;20621;-73
2023/07/30 09:42:40;;;;;;;12.60;11.80;;;;;;;;;;4982537;28;20116;-75
2023/07/30 09:45:09;;;;;;;12.88;12.07;;;;;;;;;;4983097;28;20045;-74
2023/07/30 09:47:38;;;;;;;14.27;13.05;;;;;;;;;;4984156;28;20085;-75
2023/07/30 09:50:04;;;;;;;14.45;13.45;;;;;;;;;;4984805;28;20654;-75
2023/07/30 09:52:30;;;;;;;14.57;13.43;;;;;;;;;;4981314;28;20041;-76
2023/07/30 09:54:58;;;;;;;14.18;13.18;;;;;;;;;;4983487;28;20038;-75
2023/07/30 09:57:24;;;;;;;14.55;13.55;;;;;;;;;;4983396;28;20142;-76
2023/07/30 09:59:49;;;;;;;14.45;13.45;;;;;;;;;;4980742;28;20054;-76
2023/07/30 10:02:16;;;;;;;13.73;12.93;;;;;;;;;;4982907;28;20045;-76
2023/07/30 10:04:43;;;;;;;14.02;12.98;;;;;;;;;;4983333;28;20038;-74
2023/07/30 10:07:14;;;;;;;14.00;12.93;;;;;;;;;;4984195;28;20125;-75
2023/07/30 10:09:43;;;;;;;13.75;12.85;;;;;;;;;;4982969;28;20041;-75
2023/07/30 10:12:16;;;;;;;14.02;13.13;;;;;;;;;;4985823;28;20042;-75
2023/07/30 10:14:43;;;;;;;14.52;13.43;;;;;;;;;;4980230;28;20113;-75
2023/07/30 10:17:10;;;;;;;13.73;12.75;;;;;;;;;;4982499;28;20057;-75
2023/07/30 10:19:37;;;;;;;13.57;12.77;;;;;;;;;;4983622;28;20048;-75
2023/07/30 10:22:14;;;;;;;13.80;12.80;;;;;;;;;;4982858;28;20046;-74
2023/07/30 10:24:54;;;;;;;14.15;13.25;;;;;;;;;;4980530;28;20042;-74
2023/07/30 10:27:24;;;;;;;14.10;13.20;;;;;;;;;;4985766;28;20046;-75
2023/07/30 10:30:09;;;;;;;13.70;12.88;;;;;;;;;;4985980;28;20069;-75
2023/07/30 10:32:57;;;;;;;13.77;12.98;;;;;;;;;;4983229;28;20038;-75
2023/07/30 10:35:40;;;;;;;13.38;12.45;;;;;;;;;;4982103;28;20049;-74
2023/07/30 10:38:34;;;;;;;12.95;12.13;;;;;;;;;;4982227;28;20038;-74
2023/07/30 10:41:09;;;;;;;12.55;11.85;;;;;;;;;;4980807;28;20114;-73
2023/07/30 10:43:47;;;;;;;12.75;11.95;;;;;;;;;;4980648;28;20046;-73
2023/07/30 10:46:17;;;;;;;12.75;11.88;;;;;;;;;;4982010;28;20042;-74
2023/07/30 10:48:45;;;;;;;12.45;11.65;;;;;;;;;;4981633;28;20108;-73
2023/07/30 10:51:20;;;;;;;11.77;10.75;;;;;;;;;;4978459;28;20104;-72
2023/07/30 10:53:47;;;;;;;12.10;11.30;;;;;;;;;;4979936;28;20044;-71
2023/07/30 10:56:16;;;;;;;12.20;11.50;;;;;;;;;;4981316;28;20046;-72
2023/07/30 10:58:42;;;;;;;12.68;11.48;;;;;;;;;;4976932;28;20046;-72
2023/07/30 11:01:08;;;;;;;11.60;10.85;;;;;;;;;;4981869;28;20034;-72
2023/07/30 11:03:35;;;;;;;11.75;10.98;;;;;;;;;;4979631;28;20124;-72
2023/07/30 11:06:02;;;;;;;12.02;11.25;;;;;;;;;;4980478;28;20057;-71
2023/07/30 11:08:41;;;;;;;11.82;11.02;;;;;;;;;;4963935;28;20152;-71
2023/07/30 11:11:08;;;;;;;;;;;;;;;;;;4979463;28;20517;-72
2023/07/30 11:13:48;;;;;;;12.48;11.57;;;;;;;;;;4980340;28;19918;-72
2023/07/30 11:16:15;;;;;;;11.38;10.57;;;;;;;;;;4980772;28;20034;-73
2023/07/30 11:18:42;;;;;;;11.82;11.13;;;;;;;;;;4979181;28;20072;-73
2023/07/30 11:21:08;;;;;;;11.13;10.40;;;;;;;;;;4980340;28;20092;-73
2023/07/30 11:23:35;;;;;;;10.82;10.07;;;;;;;;;;4980245;28;20046;-73
2023/07/30 11:26:03;;;;;;;10.80;10.10;;;;;;;;;;4980634;28;20149;-73
2023/07/30 11:28:37;;;;;;;11.77;11.00;;;;;;;;;;4978487;28;20675;-73
2023/07/30 11:31:13;;;;;;;11.32;10.63;;;;;;;;;;4979300;28;20114;-74
2023/07/30 11:33:44;;;;;;;11.45;10.45;;;;;;;;;;4981555;28;20049;-73
2023/07/30 11:36:12;;;;;;;11.10;10.20;;;;;;;;;;4980056;28;20030;-73
2023/07/30 11:38:38;;;;;;;11.60;10.90;;;;;;;;;;4981726;28;20168;-73
2023/07/30 11:41:05;;;;;;;12.07;11.27;;;;;;;;;;4982932;28;20470;-73
2023/07/30 11:43:31;;;;;;;12.40;11.60;;;;;;;;;;4982097;28;20038;-74
2023/07/30 11:46:10;;;;;;;12.07;11.27;;;;;;;;;;4982671;28;20745;-73
2023/07/30 11:48:36;;;;;;;11.38;10.68;;;;;;;;;;4982330;28;20717;-73
2023/07/30 11:51:02;;;;;;;11.00;10.30;;;;;;;;;;4983177;28;20076;-73
2023/07/30 11:53:44;;;;;;;11.98;10.10;;;;;;;;;;4984497;28;20034;-73
2023/07/30 11:56:27;;;;;;;12.00;11.20;;;;;;;;;;4984292;28;20149;-72
2023/07/30 11:59:01;;;;;;;11.85;11.05;;;;;;;;;;4981399;28;20043;-73
2023/07/30 12:01:29;;;;;;;11.30;10.60;;;;;;;;;;4979733;28;20038;-73
2023/07/30 12:03:56;;;;;;;12.35;11.55;;;;;;;;;;4981791;28;20521;-73
2023/07/30 12:06:22;;;;;;;11.00;10.27;;;;;;;;;;4982413;28;20037;-73
2023/07/30 12:08:51;;;;;;;12.40;11.40;;;;;;;;;;4983834;28;20395;-73
2023/07/30 12:11:21;;;;;;;11.80;11.00;;;;;;;;;;4984371;28;20042;-73
2023/07/30 12:13:46;;;;;;;11.80;10.80;;;;;;;;;;4979753;28;20045;-73
2023/07/30 12:16:13;;;;;;;11.73;10.93;;;;;;;;;;4983744;28;20030;-73
2023/07/30 12:18:39;;;;;;;11.23;10.43;;;;;;;;;;4982365;28;20053;-73
2023/07/30 12:21:07;;;;;;;10.80;10.00;;;;;;;;;;4983085;28;20131;-73
2023/07/30 12:23:34;;;;;;;11.27;10.45;;;;;;;;;;4981340;28;20653;-74
2023/07/30 12:25:59;;;;;;;10.93;10.02;;;;;;;;;;4984134;28;20034;-72
2023/07/30 12:28:25;;;;;;;11.45;10.60;;;;;;;;;;4982255;28;20034;-73
2023/07/30 12:30:51;;;;;;;11.23;10.43;;;;;;;;;;4981257;28;20089;-73
2023/07/30 12:33:16;;;;;;;10.80;10.10;;;;;;;;;;4982937;28;20446;-74
2023/07/30 12:35:42;;;;;;;9.95;9.35;;;;;;;;;;4985161;28;20471;-74
2023/07/30 12:38:08;;;;;;;11.10;10.10;;;;;;;;;;4986263;28;20119;-74
2023/07/30 12:40:33;;;;;;;10.85;10.05;;;;;;;;;;4983393;28;20573;-74
2023/07/30 12:43:03;;;;;;;10.82;10.02;;;;;;;;;;4983419;28;20145;-75
2023/07/30 12:45:30;;;;;;;10.52;9.82;;;;;;;;;;4985804;28;20049;-75
2023/07/30 12:47:55;;;;;;;10.88;10.18;;;;;;;;;;4983523;28;20038;-75
2023/07/30 12:50:21;;;;;;;11.32;10.52;;;;;;;;;;4985190;28;20097;-75
2023/07/30 12:52:47;;;;;;;11.02;10.15;;;;;;;;;;4984238;28;20109;-74
2023/07/30 12:55:12;;;;;;;10.50;9.80;;;;;;;;;;4985029;28;20038;-74
2023/07/30 12:57:38;;;;;;;10.93;10.13;;;;;;;;;;4984729;28;20045;-74
2023/07/30 13:00:04;;;;;;;11.18;10.20;;;;;;;;;;4982997;28;20052;-74
2023/07/30 13:02:33;;;;;;;11.10;10.40;;;;;;;;;;4983507;28;20042;-74
2023/07/30 13:04:59;;;;;;;10.07;9.48;;;;;;;;;;4983137;28;20034;-74
2023/07/30 13:07:25;;;;;;;10.90;10.00;;;;;;;;;;4983888;28;20041;-76
2023/07/30 13:10:02;;;;;;;11.10;10.10;;;;;;;;;;4985052;28;20050;-74
2023/07/30 13:12:28;;;;;;;11.45;10.55;;;;;;;;;;4984026;28;20033;-74
2023/07/30 13:14:54;;;;;;;10.80;9.90;;;;;;;;;;4983914;28;20042;-74
2023/07/30 13:17:19;;;;;;;10.52;9.75;;;;;;;;;;4984853;28;20074;-74
2023/07/30 13:19:45;;;;;;;10.57;9.88;;;;;;;;;;4984656;28;20121;-74
2023/07/30 13:22:11;;;;;;;10.57;9.88;;;;;;;;;;4980405;28;20169;-74
2023/07/30 13:24:39;;;;;;;10.88;10.18;;;;;;;;;;4979962;28;20038;-74
2023/07/30 13:27:05;;;;;;;10.63;9.93;;;;;;;;;;4979017;28;20049;-74
2023/07/30 13:29:31;;;;;;;10.30;9.60;;;;;;;;;;4981503;28;20157;-74
2023/07/30 13:31:57;;;;;;;9.80;9.20;;;;;;;;;;4980404;28;20117;-75
2023/07/30 13:34:22;;;;;;;10.73;10.02;;;;;;;;;;4987111;28;20030;-74
2023/07/30 13:36:48;;;;;;;10.23;9.55;;;;;;;;;;4983791;28;20038;-74
2023/07/30 13:39:14;;;;;;;11.00;10.20;;;;;;;;;;4976790;28;20421;-74
2023/07/30 13:41:40;;;;;;;10.63;9.70;;;;;;;;;;4979160;28;20213;-74
2023/07/30 13:44:05;;;;;;;11.05;10.30;;;;;;;;;;4980226;28;20038;-74
2023/07/30 13:46:31;;;;;;;10.98;10.25;;;;;;;;;;4982251;28;20040;-74
2023/07/30 13:48:56;;;;;;;10.80;10.10;;;;;;;;;;4977717;28;20050;-75
2023/07/30 13:51:22;;;;;;;9.93;9.20;;;;;;;;;;4976741;28;20075;-74
2023/07/30 13:53:47;;;;;;;10.90;10.20;;;;;;;;;;4995270;28;20050;-74
2023/07/30 13:56:14;;;;;;;10.60;9.70;;;;;;;;;;4977467;28;20037;-75
2023/07/30 13:58:39;;;;;;;11.13;10.23;;;;;;;;;;4979096;28;20038;-75
2023/07/30 14:01:06;;;;;;;11.85;10.55;;;;;;;;;;4972784;28;20101;-75
2023/07/30 14:03:32;;;;;;;10.13;9.40;;;;;;;;;;4978951;28;20680;-75
2023/07/30 14:05:58;;;;;;;10.75;10.05;;;;;;;;;;4978879;28;20049;-75
2023/07/30 14:08:24;;;;;;;10.82;10.13;;;;;;;;;;4978502;28;20038;-74
2023/07/30 14:10:49;;;;;;;10.60;9.85;;;;;;;;;;4978589;28;20045;-74
2023/07/30 14:13:15;;;;;;;10.55;9.75;;;;;;;;;;4979543;28;20116;-74
2023/07/30 14:15:41;;;;;;;11.00;10.10;;;;;;;;;;4980289;28;20675;-74
2023/07/30 14:18:06;;;;;;;10.43;9.73;;;;;;;;;;4980417;28;20034;-75